Portada
METAR-TAF:

METAR-TAF

Aeropuertos :

Base Aérea de Alcantarilla

Murcia, España

latitud: 37-57N, longitud: 001-14W, altitud: 75 m

Observación

El informe se hizo hace 19 minutos, a las 13:00 UTC
Viento 1 kt del norte-noreste
Temperatura 19°C
Humedad 60%
Presión 1027 hPa
Visibilidad 10 km o más
Escasas nubes a una altura de 2000 ft

METAR: LERI 101300Z 02001KT 9999 FEW020 19/11 Q1027 NOSIG

Hora: 14:19 (13:19 UTC)

Pronóstico

El informe se hizo hace 2 horas y 19 minutos, a las 11:00 UTC
Pronóstico válido del 10 a las 12 UTC al 10 a las 21 UTC
Viento 3 kt con dirección variable
Visibilidad 10 km o más
Escasas nubes a una altura de 2000 ft

TAF: LERI 101100Z 1012/1021 VRB03KT 9999 FEW020

Observaciones y pronósticos meteorológicos de más de 4000 aeropuertos (mensajes METAR y TAF).

Los puntos amarillos y rojos representan las estaciones disponibles.

Ponga el ratón en el punto deseado para ver el nombre de la estación.

Haga clic para ver las observaciones y los pronósticos meteorológicos.

Para cambiar el mapa : haga clic en los botones verdes con una cruz de color negro para hacer un zoom, en el botón verde con un guión para alejar o en las flechas verdes para mapas adyacentes.


METAR-TAF: